createdAt,value
2022-11-13T01:28:24.225Z,22.70
2022-11-13T01:31:22.671Z,22.80
2022-11-13T01:34:16.899Z,22.70
2022-11-13T01:37:10.940Z,22.80
2022-11-13T01:52:07.107Z,23.10
2022-11-13T01:55:04.878Z,23.30
2022-11-13T01:57:58.976Z,23.20
2022-11-13T02:00:54.440Z,23.10
2022-11-13T02:03:48.931Z,23.10
2022-11-13T02:06:48.511Z,23.00
2022-11-13T02:09:47.535Z,23.10
2022-11-13T02:24:42.042Z,22.80
2022-11-13T02:27:43.237Z,22.80
2022-11-13T02:30:39.815Z,22.70
2022-11-13T02:33:37.849Z,22.60
2022-11-13T02:36:32.342Z,22.60
2022-11-13T02:39:27.306Z,22.60
2022-11-13T02:42:24.904Z,22.60
2022-11-13T02:45:18.395Z,22.50
2022-11-13T02:48:13.015Z,22.50
2022-11-13T02:51:08.064Z,22.60
2022-11-13T02:54:04.958Z,22.60
2022-11-13T02:56:59.198Z,22.70
2022-11-13T03:02:50.491Z,22.70
2022-11-13T03:05:44.877Z,22.90
2022-11-13T03:08:39.787Z,23.00
2022-11-13T03:11:34.176Z,23.20
2022-11-13T03:14:27.924Z,23.30
2022-11-13T03:17:23.695Z,23.30
2022-11-13T03:20:17.621Z,23.40
2022-11-13T03:34:52.541Z,23.50
2022-11-13T03:52:17.213Z,23.20
2022-11-13T04:06:51.344Z,23.50
2022-11-13T06:20:58.863Z,23.70
2022-11-13T06:23:52.911Z,23.80
2022-11-13T06:26:49.337Z,23.80
2022-11-13T06:29:49.939Z,23.80
2022-11-13T06:32:44.347Z,23.80
2022-11-13T06:35:40.133Z,23.80
2022-11-13T06:38:36.247Z,23.80
2022-11-13T06:41:31.387Z,23.80
2022-11-13T06:44:24.981Z,23.90
2022-11-13T06:47:21.010Z,23.90
2022-11-13T06:50:15.151Z,23.90
2022-11-13T06:53:11.228Z,23.90
2022-11-13T06:56:05.591Z,23.90
2022-11-13T06:59:17.978Z,23.90
2022-11-13T07:02:13.886Z,23.90
2022-11-13T07:05:10.115Z,23.90
2022-11-13T07:08:04.189Z,23.90
2022-11-13T07:11:01.170Z,23.80
2022-11-13T07:13:55.380Z,23.80
2022-11-13T07:17:08.666Z,23.80
2022-11-13T07:20:03.846Z,23.80
2022-11-13T07:23:01.449Z,23.80
2022-11-13T07:25:58.427Z,23.80
2022-11-13T07:28:52.739Z,23.80
2022-11-13T07:31:47.479Z,23.70
2022-11-13T07:34:41.657Z,23.70
2022-11-13T07:37:35.208Z,23.70
2022-11-13T07:40:31.878Z,23.80
2022-11-13T07:43:26.046Z,23.80
2022-11-13T07:46:21.065Z,23.80
2022-11-13T07:49:14.816Z,23.70
2022-11-13T07:52:08.818Z,23.80
2022-11-13T07:55:02.727Z,23.70
2022-11-13T07:58:01.327Z,23.70
2022-11-13T08:00:54.941Z,23.70
2022-11-13T08:03:51.358Z,23.60
2022-11-13T08:06:45.953Z,23.60
2022-11-13T08:09:39.992Z,23.60
2022-11-13T08:12:33.572Z,23.50
2022-11-13T08:21:17.135Z,23.10
2022-11-13T11:25:23.524Z,22.30
2022-11-13T11:28:28.564Z,22.30
2022-11-13T11:43:48.013Z,22.20
2022-11-13T12:05:30.416Z,22.10
2022-11-13T12:59:39.263Z,21.80
2022-11-13T13:03:00.067Z,22.00
2022-11-13T13:06:21.206Z,21.90
2022-11-13T13:09:29.164Z,21.90
2022-11-13T13:12:44.045Z,21.90
2022-11-13T13:15:42.645Z,21.90
2022-11-13T13:18:37.976Z,21.90
2022-11-13T13:21:32.060Z,21.90
2022-11-13T13:24:37.040Z,21.90
2022-11-13T13:27:34.705Z,21.80
2022-11-13T13:30:30.069Z,21.80
2022-11-13T13:33:30.868Z,21.80
2022-11-13T13:36:53.786Z,21.80
2022-11-13T13:40:00.138Z,21.80
2022-11-13T13:43:11.776Z,21.80
2022-11-13T13:46:13.353Z,21.80
2022-11-13T13:49:14.639Z,21.80
2022-11-13T13:58:06.795Z,21.90
2022-11-13T14:01:18.367Z,22.00
2022-11-13T14:04:20.613Z,21.90
2022-11-13T14:07:30.404Z,21.80
2022-11-13T14:10:25.658Z,21.70
2022-11-13T14:13:29.507Z,21.80
2022-11-13T14:16:23.512Z,21.80
2022-11-13T14:19:17.523Z,21.70
2022-11-13T14:22:17.768Z,21.70
2022-11-13T14:25:21.253Z,21.60
2022-11-13T14:28:22.553Z,21.60
2022-11-13T14:31:19.060Z,21.50
2022-11-13T14:34:19.581Z,21.50
2022-11-13T14:37:28.325Z,21.50
2022-11-13T14:40:41.230Z,21.30
2022-11-13T14:43:40.411Z,21.30
2022-11-13T14:46:39.100Z,21.10
2022-11-13T14:49:36.839Z,21.10
2022-11-13T14:52:35.260Z,21.10
2022-11-13T14:55:30.752Z,21.10
2022-11-13T14:58:33.342Z,21.10
2022-11-13T15:01:29.882Z,21.20
2022-11-13T15:04:23.987Z,21.20
2022-11-13T15:07:34.920Z,21.20
2022-11-13T15:10:29.650Z,21.20
2022-11-13T15:13:24.465Z,21.20
2022-11-13T15:16:20.539Z,21.20
2022-11-13T15:19:20.553Z,21.20
2022-11-13T15:22:31.558Z,21.20
2022-11-13T15:25:28.652Z,21.20
2022-11-13T15:28:23.457Z,21.20
2022-11-13T15:31:24.165Z,21.20
2022-11-13T15:34:23.080Z,21.10
2022-11-13T15:37:24.001Z,21.10
2022-11-13T15:40:19.330Z,21.10
2022-11-13T15:43:21.924Z,21.20
2022-11-13T15:46:20.794Z,21.20
2022-11-13T15:49:14.679Z,21.10
2022-11-13T15:52:11.272Z,21.10
2022-11-13T15:55:06.130Z,21.10
2022-11-13T15:57:59.898Z,21.10
2022-11-13T16:00:53.684Z,21.10
2022-11-13T16:03:47.603Z,21.10
2022-11-13T16:06:42.839Z,21.00
2022-11-13T16:09:39.195Z,21.00
2022-11-13T16:12:32.837Z,21.00
2022-11-13T16:15:26.734Z,20.90
2022-11-13T16:18:27.735Z,20.90
2022-11-13T16:21:23.797Z,21.00
2022-11-13T16:24:21.088Z,20.90
2022-11-13T16:27:24.978Z,20.90
2022-11-13T16:30:29.586Z,20.90
2022-11-13T16:33:25.312Z,20.90
2022-11-13T16:36:22.095Z,20.90
2022-11-13T16:39:19.171Z,20.80
2022-11-13T16:42:13.813Z,20.60
2022-11-13T16:45:09.057Z,20.50
2022-11-13T16:48:04.292Z,20.50
2022-11-13T16:50:58.017Z,20.40
2022-11-13T16:53:52.060Z,20.50
2022-11-13T16:56:46.651Z,20.50
2022-11-13T16:59:41.943Z,20.60
2022-11-13T17:02:37.824Z,20.60
2022-11-13T17:05:31.688Z,20.60
2022-11-13T17:08:26.361Z,20.60
2022-11-13T17:11:19.748Z,20.60
2022-11-13T17:14:15.078Z,20.60
2022-11-13T17:17:15.125Z,20.60
2022-11-13T17:20:14.347Z,20.60
2022-11-13T17:23:11.084Z,20.60
2022-11-13T17:26:05.779Z,20.60
2022-11-13T17:29:01.100Z,20.70
2022-11-13T17:31:54.925Z,20.70
2022-11-13T17:34:48.830Z,20.70
2022-11-13T17:37:44.180Z,20.80
2022-11-13T17:40:39.224Z,20.80
2022-11-13T17:43:33.182Z,20.70
2022-11-13T17:46:27.107Z,20.70
2022-11-13T17:49:22.677Z,20.60
2022-11-13T17:52:17.019Z,20.60
2022-11-13T17:55:18.593Z,20.70
2022-11-13T17:58:12.815Z,20.70
2022-11-13T18:01:10.920Z,20.80
2022-11-13T18:04:06.028Z,20.80
2022-11-13T18:06:59.705Z,20.80
2022-11-13T18:09:53.904Z,20.80
2022-11-13T18:12:49.830Z,20.80
2022-11-13T18:15:43.917Z,20.80
2022-11-13T18:18:42.042Z,20.80
2022-11-13T18:21:38.007Z,20.80
2022-11-13T18:24:32.216Z,20.70
2022-11-13T18:27:25.864Z,20.70
2022-11-13T18:30:23.527Z,20.70
2022-11-13T18:33:17.341Z,20.70
2022-11-13T18:36:12.304Z,20.70
2022-11-13T18:39:08.904Z,20.60
2022-11-13T18:42:05.502Z,20.70
2022-11-13T18:45:21.131Z,20.70
2022-11-13T18:48:16.014Z,20.70
2022-11-13T18:51:12.125Z,20.70
2022-11-13T18:54:09.835Z,20.70
2022-11-13T18:57:03.875Z,20.70
2022-11-13T19:00:00.850Z,20.60
2022-11-13T19:02:59.809Z,20.70
2022-11-13T19:05:54.879Z,20.70
2022-11-13T19:08:49.844Z,20.70
2022-11-13T19:11:43.317Z,20.80
2022-11-13T19:14:36.903Z,20.80
2022-11-13T19:17:30.970Z,20.80
2022-11-13T19:20:28.285Z,20.80
2022-11-13T19:23:23.417Z,20.80
2022-11-13T19:26:18.364Z,20.80
2022-11-13T19:29:14.210Z,20.80
2022-11-13T19:32:08.101Z,20.80
2022-11-13T19:35:01.767Z,20.80
2022-11-13T19:38:02.623Z,20.80
2022-11-13T19:40:57.542Z,20.90
2022-11-13T19:43:51.971Z,20.90
2022-11-13T19:46:46.722Z,20.90
2022-11-13T19:49:43.132Z,20.90
2022-11-13T19:52:36.840Z,20.90
2022-11-13T19:55:32.560Z,20.90
2022-11-13T19:58:25.526Z,20.90
2022-11-13T20:01:20.866Z,20.90
2022-11-13T20:04:19.213Z,20.90
2022-11-13T20:07:17.832Z,20.90
2022-11-13T20:10:21.879Z,21.00
2022-11-13T20:13:23.425Z,21.00
2022-11-13T20:16:22.574Z,21.00
2022-11-13T20:19:16.832Z,20.90
2022-11-13T20:22:10.010Z,20.90
2022-11-13T20:25:05.679Z,20.90
2022-11-13T20:27:59.445Z,20.90
2022-11-13T20:30:55.324Z,20.90
2022-11-13T20:33:48.723Z,20.80
2022-11-13T20:36:44.889Z,20.80
2022-11-13T20:39:40.562Z,20.80
2022-11-13T20:42:33.798Z,20.70
2022-11-13T20:45:27.908Z,20.70
2022-11-13T20:48:23.761Z,20.60
2022-11-13T20:51:20.054Z,20.50
2022-11-13T20:54:14.330Z,20.50
2022-11-13T20:57:08.456Z,20.50
2022-11-13T21:00:02.713Z,20.60
2022-11-13T21:02:57.762Z,20.60
2022-11-13T21:05:53.626Z,20.50
2022-11-13T21:08:47.366Z,20.50
2022-11-13T21:11:41.028Z,20.50
2022-11-13T21:14:35.684Z,20.60
2022-11-13T21:17:30.548Z,20.50
2022-11-13T21:20:24.095Z,20.50
2022-11-13T21:23:23.033Z,20.50
2022-11-13T21:26:16.978Z,20.60
2022-11-13T21:29:10.878Z,20.70
2022-11-13T21:32:04.276Z,21.00
2022-11-13T21:35:00.816Z,21.10
2022-11-13T21:37:56.269Z,21.30
2022-11-13T21:41:11.883Z,21.40
2022-11-13T21:44:10.395Z,21.50
2022-11-13T21:47:04.208Z,21.80
2022-11-13T21:49:59.123Z,22.00
2022-11-13T21:52:53.135Z,22.20
2022-11-13T21:55:56.772Z,22.30
2022-11-13T21:58:51.009Z,22.50
2022-11-13T22:07:38.812Z,22.80
2022-11-13T22:10:32.372Z,22.80
2022-11-13T22:16:23.721Z,22.80
2022-11-13T22:19:26.976Z,22.90
2022-11-13T22:54:16.725Z,24.00
2022-11-13T22:57:12.026Z,24.00
2022-11-13T23:00:10.871Z,24.20
2022-11-13T23:03:07.190Z,24.30
2022-11-13T23:06:05.308Z,24.40
2022-11-13T23:09:00.386Z,24.40
2022-11-13T23:11:54.331Z,24.50
2022-11-13T23:14:50.419Z,24.50
2022-11-13T23:17:44.485Z,24.50
2022-11-13T23:20:37.549Z,24.70
2022-11-13T23:23:33.358Z,24.80
2022-11-13T23:26:30.317Z,24.90
2022-11-13T23:29:24.787Z,25.00
2022-11-13T23:32:19.701Z,25.10
2022-11-13T23:35:16.007Z,25.10
2022-11-13T23:38:09.590Z,25.10
2022-11-13T23:41:12.287Z,25.10
2022-11-13T23:44:09.736Z,25.10
2022-11-13T23:47:04.097Z,25.20
2022-11-13T23:49:57.312Z,25.40
2022-11-13T23:52:52.011Z,25.50
2022-11-13T23:55:46.486Z,25.50
2022-11-13T23:58:42.239Z,25.60
